createdAt,value
2022-10-19T00:01:38.417Z,97662.81
2022-10-19T00:04:08.637Z,97646.44
2022-10-19T00:06:38.118Z,97653.91
2022-10-19T00:09:08.354Z,97639.00
2022-10-19T00:11:38.125Z,97641.50
2022-10-19T00:14:06.125Z,97651.75
2022-10-19T00:16:35.415Z,97645.63
2022-10-19T00:19:06.894Z,97637.63
2022-10-19T00:21:33.857Z,97636.59
2022-10-19T00:24:03.393Z,97646.94
2022-10-19T00:26:30.596Z,97644.25
2022-10-19T00:28:58.342Z,97639.81
2022-10-19T00:31:26.497Z,97629.19
2022-10-19T00:33:55.923Z,97639.41
2022-10-19T00:36:25.915Z,97638.59
2022-10-19T00:38:53.802Z,97634.13
2022-10-19T00:41:24.736Z,97638.50
2022-10-19T00:43:54.777Z,97644.28
2022-10-19T00:46:22.289Z,97643.44
2022-10-19T00:48:50.788Z,97636.44
2022-10-19T00:51:18.187Z,97629.50
2022-10-19T00:53:45.582Z,97626.19
2022-10-19T00:56:15.058Z,97619.97
2022-10-19T00:58:44.682Z,97618.03
2022-10-19T01:01:16.048Z,97618.50
2022-10-19T01:03:43.327Z,97619.34
2022-10-19T01:06:12.088Z,97609.66
2022-10-19T01:08:39.307Z,97607.81
2022-10-19T01:11:23.006Z,97615.81
2022-10-19T01:14:04.078Z,97619.63
2022-10-19T01:16:42.727Z,97618.97
2022-10-19T01:19:29.737Z,97619.88
2022-10-19T01:22:09.126Z,97612.97
2022-10-19T01:24:52.407Z,97618.28
2022-10-19T01:27:44.140Z,97611.31
2022-10-19T01:30:18.093Z,97609.53
2022-10-19T01:33:05.065Z,97599.94
2022-10-19T01:35:40.037Z,97614.75
2022-10-19T01:38:23.500Z,97605.53
2022-10-19T01:40:59.891Z,97603.88
2022-10-19T01:43:38.374Z,97600.50
2022-10-19T01:46:13.920Z,97589.41
2022-10-19T01:48:45.605Z,97589.84
2022-10-19T01:51:17.884Z,97600.00
2022-10-19T01:53:51.487Z,97604.81
2022-10-19T01:56:22.291Z,97600.69
2022-10-19T01:58:51.661Z,97593.88
2022-10-19T02:01:24.651Z,97603.38
2022-10-19T02:03:54.065Z,97587.75
2022-10-19T02:06:22.893Z,97585.97
2022-10-19T02:08:53.251Z,97590.44
2022-10-19T02:11:22.382Z,97596.84
2022-10-19T02:13:54.898Z,97591.88
2022-10-19T02:16:27.684Z,97596.19
2022-10-19T02:18:56.759Z,97590.22
2022-10-19T02:21:24.623Z,97590.41
2022-10-19T02:23:54.184Z,97590.16
2022-10-19T02:26:22.556Z,97589.66
2022-10-19T02:28:50.775Z,97582.84
2022-10-19T02:31:18.308Z,97588.28
2022-10-19T02:33:48.169Z,97583.88
2022-10-19T02:36:15.503Z,97564.72
2022-10-19T02:38:43.043Z,97576.81
2022-10-19T02:41:16.308Z,97577.00
2022-10-19T02:43:48.184Z,97578.84
2022-10-19T02:46:20.976Z,97576.41
2022-10-19T02:48:52.280Z,97580.09
2022-10-19T02:51:34.567Z,97573.06
2022-10-19T02:54:05.202Z,97572.38
2022-10-19T02:56:34.563Z,97573.31
2022-10-19T02:59:02.866Z,97576.19
2022-10-19T03:01:30.433Z,97591.88
2022-10-19T03:04:00.463Z,97571.38
2022-10-19T03:06:28.326Z,97581.88
2022-10-19T03:08:56.080Z,97575.88
2022-10-19T03:11:23.251Z,97569.09
2022-10-19T03:13:50.544Z,97569.34
2022-10-19T03:16:18.380Z,97572.72
2022-10-19T03:18:47.844Z,97579.69
2022-10-19T03:21:17.901Z,97583.94
2022-10-19T03:23:45.323Z,97579.00
2022-10-19T03:26:14.853Z,97572.13
2022-10-19T03:28:42.749Z,97579.06
2022-10-19T03:31:10.222Z,97584.28
2022-10-19T03:33:37.732Z,97583.28
2022-10-19T03:36:20.346Z,97573.78
2022-10-19T03:38:50.056Z,97576.63
2022-10-19T03:41:18.223Z,97577.50
2022-10-19T03:43:46.144Z,97585.97
2022-10-19T03:46:13.530Z,97584.28
2022-10-19T03:48:41.121Z,97592.00
2022-10-19T03:51:10.688Z,97595.47
2022-10-19T03:53:40.301Z,97610.06
2022-10-19T03:56:11.033Z,97628.19
2022-10-19T03:58:39.913Z,97613.94
2022-10-19T04:01:09.363Z,97614.44
2022-10-19T04:03:37.748Z,97609.16
2022-10-19T04:06:07.853Z,97594.97
2022-10-19T04:08:36.100Z,97605.81
2022-10-19T04:11:08.980Z,97611.78
2022-10-19T04:13:36.793Z,97613.38
2022-10-19T04:16:05.224Z,97614.91
2022-10-19T04:18:33.469Z,97620.69
2022-10-19T04:21:03.232Z,97618.66
2022-10-19T04:23:33.963Z,97616.53
2022-10-19T04:26:02.460Z,97612.03
2022-10-19T04:28:32.149Z,97617.81
2022-10-19T04:31:04.172Z,97615.78
2022-10-19T04:33:32.063Z,97608.63
2022-10-19T04:36:00.172Z,97616.47
2022-10-19T04:38:28.993Z,97624.00
2022-10-19T04:41:01.732Z,97618.97
2022-10-19T04:43:31.324Z,97616.38
2022-10-19T04:46:04.812Z,97621.59
2022-10-19T04:48:32.762Z,97620.97
2022-10-19T04:50:59.833Z,97615.78
2022-10-19T04:53:27.534Z,97632.25
2022-10-19T04:55:55.033Z,97640.81
2022-10-19T04:58:23.184Z,97638.03
2022-10-19T05:00:52.310Z,97627.44
2022-10-19T05:03:19.833Z,97624.66
2022-10-19T05:05:47.693Z,97622.81
2022-10-19T05:08:15.194Z,97625.06
2022-10-19T05:10:45.439Z,97627.59
2022-10-19T05:13:15.712Z,97624.81
2022-10-19T05:15:43.561Z,97622.19
2022-10-19T05:18:12.872Z,97616.91
2022-10-19T05:20:40.177Z,97629.84
2022-10-19T05:23:07.522Z,97639.34
2022-10-19T05:25:34.643Z,97638.34
2022-10-19T05:28:01.932Z,97637.31
2022-10-19T05:30:29.212Z,97637.41
2022-10-19T05:32:56.493Z,97633.03
2022-10-19T05:35:25.640Z,97639.00
2022-10-19T05:37:54.913Z,97628.56
2022-10-19T05:40:22.253Z,97635.47
2022-10-19T05:42:49.501Z,97640.50
2022-10-19T05:45:16.954Z,97641.25
2022-10-19T05:47:44.246Z,97635.94
2022-10-19T05:50:11.573Z,97645.38
2022-10-19T05:52:40.874Z,97654.94
2022-10-19T05:55:09.295Z,97649.63
2022-10-19T05:57:36.932Z,97641.72
2022-10-19T06:00:06.597Z,97648.44
2022-10-19T06:02:34.754Z,97656.09
2022-10-19T06:05:01.813Z,97647.31
2022-10-19T06:07:29.087Z,97659.34
2022-10-19T06:09:58.274Z,97665.50
2022-10-19T06:12:26.202Z,97665.31
2022-10-19T06:14:53.735Z,97669.34
2022-10-19T06:17:21.134Z,97692.53
2022-10-19T06:19:48.690Z,97686.16
2022-10-19T06:22:16.495Z,97685.78
2022-10-19T06:24:43.813Z,97692.50
2022-10-19T06:27:13.532Z,97689.44
2022-10-19T06:29:41.166Z,97694.19
2022-10-19T06:32:08.553Z,97691.22
2022-10-19T06:34:35.765Z,97695.16
2022-10-19T06:37:03.832Z,97683.63
2022-10-19T06:39:31.704Z,97698.94
2022-10-19T06:41:59.214Z,97691.56
2022-10-19T06:44:28.034Z,97700.59
2022-10-19T06:46:55.452Z,97709.84
2022-10-19T06:49:22.714Z,97707.78
2022-10-19T06:51:49.834Z,97711.88
2022-10-19T06:54:17.197Z,97718.41
2022-10-19T06:56:44.402Z,97707.78
2022-10-19T06:59:12.489Z,97707.50
2022-10-19T07:01:41.794Z,97715.16
2022-10-19T07:04:09.372Z,97713.91
2022-10-19T07:06:36.573Z,97711.38
2022-10-19T07:09:04.095Z,97717.94
2022-10-19T07:11:31.673Z,97712.50
2022-10-19T07:13:58.892Z,97718.66
2022-10-19T07:16:26.176Z,97718.56
2022-10-19T07:18:55.438Z,97735.66
2022-10-19T07:21:23.925Z,97737.03
2022-10-19T07:23:51.218Z,97737.59
2022-10-19T07:26:20.452Z,97744.28
2022-10-19T07:28:48.393Z,97752.59
2022-10-19T07:31:17.480Z,97732.06
2022-10-19T07:33:47.352Z,97731.22
2022-10-19T07:36:15.971Z,97730.28
2022-10-19T07:38:43.292Z,97716.09
2022-10-19T07:41:13.141Z,97725.31
2022-10-19T07:43:41.596Z,97733.72
2022-10-19T07:46:12.317Z,97726.81
2022-10-19T07:48:40.134Z,97726.16
2022-10-19T07:51:09.435Z,97729.50
2022-10-19T07:53:39.084Z,97730.53
2022-10-19T07:56:08.503Z,97748.94
2022-10-19T07:58:36.759Z,97746.31
2022-10-19T08:01:06.556Z,97734.75
2022-10-19T08:06:23.075Z,97742.94
2022-10-19T08:08:53.407Z,97746.19
2022-10-19T08:11:22.729Z,97745.06
2022-10-19T08:13:50.914Z,97740.28
2022-10-19T08:16:26.750Z,97743.53
2022-10-19T08:18:57.505Z,97738.94
2022-10-19T08:21:26.929Z,97737.63
2022-10-19T08:23:55.752Z,97734.72
2022-10-19T08:26:23.082Z,97726.47
2022-10-19T08:28:50.628Z,97725.44
2022-10-19T08:31:20.080Z,97734.66
2022-10-19T08:33:49.394Z,97713.63
2022-10-19T08:36:17.086Z,97717.19
2022-10-19T08:38:44.433Z,97723.88
2022-10-19T08:41:25.134Z,97725.38
2022-10-19T08:44:10.080Z,97720.66
2022-10-19T08:46:42.647Z,97714.91
2022-10-19T08:49:12.755Z,97725.06
2022-10-19T08:51:43.654Z,97712.72
2022-10-19T08:54:17.214Z,97719.13
2022-10-19T08:56:51.479Z,97719.63
2022-10-19T08:59:31.041Z,97723.63
2022-10-19T09:02:02.993Z,97716.72
2022-10-19T09:04:35.682Z,97709.59
2022-10-19T09:07:23.616Z,97712.00
2022-10-19T09:09:54.147Z,97711.47
2022-10-19T09:12:32.467Z,97716.06
2022-10-19T09:15:02.744Z,97707.13
2022-10-19T09:17:32.640Z,97704.09
2022-10-19T09:20:14.040Z,97715.22
2022-10-19T09:22:43.144Z,97714.91
2022-10-19T09:25:15.052Z,97714.16
2022-10-19T09:27:48.581Z,97717.31
2022-10-19T09:30:19.739Z,97716.47
2022-10-19T09:32:49.274Z,97717.47
2022-10-19T09:35:23.165Z,97725.44
2022-10-19T09:37:52.544Z,97736.09
2022-10-19T09:40:22.817Z,97729.44
2022-10-19T09:42:52.174Z,97725.66
2022-10-19T09:45:32.692Z,97727.50
2022-10-19T09:48:07.196Z,97714.53
2022-10-19T09:50:44.461Z,97724.59
2022-10-19T09:53:20.212Z,97718.16
2022-10-19T09:55:51.750Z,97719.63
2022-10-19T09:58:21.393Z,97721.28
2022-10-19T10:00:50.413Z,97712.25
2022-10-19T10:03:27.193Z,97712.25
2022-10-19T10:05:57.332Z,97707.69
2022-10-19T10:08:28.819Z,97702.91
2022-10-19T10:11:05.474Z,97697.88
2022-10-19T10:13:38.132Z,97690.66
2022-10-19T10:16:09.584Z,97680.84
2022-10-19T10:18:44.992Z,97687.44
2022-10-19T10:21:15.733Z,97688.53
2022-10-19T10:23:43.072Z,97679.38
2022-10-19T10:26:19.742Z,97684.25
2022-10-19T10:28:50.711Z,97680.38
2022-10-19T10:31:24.412Z,97679.97
2022-10-19T10:34:06.411Z,97689.63
2022-10-19T10:36:44.673Z,97666.72
2022-10-19T10:39:17.432Z,97669.63
2022-10-19T10:41:48.012Z,97664.50
2022-10-19T10:44:21.945Z,97655.94
2022-10-19T10:46:54.560Z,97658.09
2022-10-19T10:49:25.948Z,97646.84
2022-10-19T10:51:56.977Z,97647.91
2022-10-19T10:54:26.502Z,97647.91
2022-10-19T10:57:16.364Z,97630.00
2022-10-19T10:59:56.614Z,97639.06
2022-10-19T11:02:36.381Z,97618.91
2022-10-19T11:05:07.940Z,97623.28
2022-10-19T11:07:37.498Z,97616.84
2022-10-19T11:10:13.612Z,97617.19
2022-10-19T11:12:47.220Z,97618.41
2022-10-19T11:15:24.751Z,97612.28
2022-10-19T11:18:05.940Z,97606.41
2022-10-19T11:20:36.643Z,97605.69
2022-10-19T11:23:16.043Z,97603.00
2022-10-19T11:25:58.928Z,97589.97
2022-10-19T11:28:45.007Z,97596.53
2022-10-19T11:31:19.647Z,97586.13
2022-10-19T11:33:57.255Z,97587.38
2022-10-19T11:36:44.636Z,97592.28
2022-10-19T11:39:30.087Z,97586.56
2022-10-19T11:42:07.307Z,97584.63
2022-10-19T11:44:47.216Z,97586.19
2022-10-19T11:47:50.875Z,97583.75
2022-10-19T11:50:36.379Z,97577.59
2022-10-19T11:53:12.667Z,97574.44
2022-10-19T11:55:46.867Z,97568.78
2022-10-19T11:58:51.376Z,97571.69
2022-10-19T12:01:32.328Z,97565.34
2022-10-19T12:04:24.516Z,97565.78
2022-10-19T12:07:06.717Z,97552.34
2022-10-19T12:09:47.366Z,97546.44
2022-10-19T12:12:30.877Z,97547.97
2022-10-19T12:15:13.576Z,97539.63
2022-10-19T12:17:45.476Z,97529.81
2022-10-19T12:20:22.235Z,97535.25
2022-10-19T12:22:55.198Z,97532.78
2022-10-19T12:25:23.056Z,97530.72
2022-10-19T12:27:50.798Z,97523.13
2022-10-19T12:30:20.489Z,97517.06
2022-10-19T12:33:04.148Z,97525.88
2022-10-19T12:35:55.735Z,97516.97
2022-10-19T12:38:30.425Z,97521.84
2022-10-19T12:41:06.951Z,97517.97
2022-10-19T12:43:41.916Z,97516.97
2022-10-19T12:46:22.117Z,97522.25
2022-10-19T12:49:22.195Z,97506.03
2022-10-19T12:51:49.771Z,97508.94
2022-10-19T12:54:24.123Z,97508.81
2022-10-19T12:56:53.116Z,97508.00
2022-10-19T12:59:24.404Z,97502.16
2022-10-19T13:01:53.204Z,97496.34
2022-10-19T13:04:24.008Z,97498.72
2022-10-19T13:07:01.323Z,97499.56
2022-10-19T13:09:32.955Z,97504.16
2022-10-19T13:12:29.942Z,97499.84
2022-10-19T13:14:58.414Z,97499.16
2022-10-19T13:17:42.254Z,97483.91
2022-10-19T13:20:51.074Z,97500.94
2022-10-19T13:23:39.073Z,97487.50
2022-10-19T13:26:31.285Z,97484.31
2022-10-19T13:28:59.058Z,97486.53
2022-10-19T13:31:28.934Z,97483.75
2022-10-19T13:33:57.454Z,97486.53
2022-10-19T13:36:26.634Z,97484.56
2022-10-19T13:39:19.595Z,97494.84
2022-10-19T13:41:54.335Z,97481.66
2022-10-19T13:44:26.395Z,97475.72
2022-10-19T13:47:29.331Z,97476.66
2022-10-19T13:50:21.086Z,97488.59
2022-10-19T13:53:12.384Z,97488.44
2022-10-19T13:56:15.534Z,97477.50
2022-10-19T13:59:16.379Z,97476.53
2022-10-19T14:02:01.245Z,97470.72
2022-10-19T14:04:42.227Z,97462.66
2022-10-19T14:07:16.946Z,97453.09
2022-10-19T14:10:07.876Z,97444.91
2022-10-19T14:12:39.985Z,97450.59
2022-10-19T14:15:27.533Z,97448.34
2022-10-19T14:17:56.014Z,97461.94
2022-10-19T14:20:31.154Z,97460.69
2022-10-19T14:22:59.034Z,97459.19
2022-10-19T14:25:28.463Z,97460.13
2022-10-19T14:28:00.434Z,97454.59
2022-10-19T14:30:31.934Z,97459.59
2022-10-19T14:33:02.354Z,97460.69
2022-10-19T14:35:33.395Z,97455.00
2022-10-19T14:38:01.442Z,97450.81
2022-10-19T14:40:30.709Z,97459.84
2022-10-19T14:43:00.037Z,97465.13
2022-10-19T14:45:30.413Z,97472.03
2022-10-19T14:48:00.826Z,97469.69
2022-10-19T14:50:41.590Z,97464.81
2022-10-19T14:53:25.317Z,97467.81
2022-10-19T14:55:58.333Z,97479.75
2022-10-19T14:58:30.234Z,97484.28
2022-10-19T15:01:00.133Z,97476.09
2022-10-19T15:03:29.485Z,97478.06
2022-10-19T15:06:01.118Z,97483.44
2022-10-19T15:08:36.074Z,97481.63
2022-10-19T15:11:04.756Z,97487.84
2022-10-19T15:13:36.474Z,97482.97
2022-10-19T15:16:06.373Z,97480.72
2022-10-19T15:18:55.659Z,97489.03
2022-10-19T15:21:23.695Z,97498.28
2022-10-19T15:23:52.153Z,97487.19
2022-10-19T15:26:22.914Z,97492.03
2022-10-19T15:28:50.861Z,97501.84
2022-10-19T15:31:24.073Z,97491.25
2022-10-19T15:33:53.133Z,97498.59
2022-10-19T15:36:23.194Z,97503.78
2022-10-19T15:39:11.816Z,97497.38
2022-10-19T15:41:50.001Z,97500.38
2022-10-19T15:44:33.154Z,97501.59
2022-10-19T15:47:20.934Z,97508.66
2022-10-19T15:49:57.293Z,97512.13
2022-10-19T15:52:27.881Z,97515.97
2022-10-19T15:54:57.124Z,97511.06
2022-10-19T15:57:30.410Z,97510.59
2022-10-19T16:00:00.193Z,97511.09
2022-10-19T16:02:30.373Z,97516.41
2022-10-19T16:04:58.129Z,97506.78
2022-10-19T16:07:28.034Z,97512.91
2022-10-19T16:09:55.354Z,97521.78
2022-10-19T16:12:24.145Z,97529.19
2022-10-19T16:14:51.693Z,97521.09
2022-10-19T16:17:19.385Z,97528.97
2022-10-19T16:19:49.437Z,97529.22
2022-10-19T16:22:17.056Z,97533.06
2022-10-19T16:24:44.985Z,97538.31
2022-10-19T16:27:12.273Z,97535.94
2022-10-19T16:29:40.954Z,97539.41
2022-10-19T16:32:09.279Z,97536.53
2022-10-19T16:34:37.094Z,97537.81
2022-10-19T16:37:07.447Z,97536.66
2022-10-19T16:39:35.556Z,97547.75
2022-10-19T16:42:03.693Z,97557.38
2022-10-19T16:44:31.092Z,97553.91
2022-10-19T16:46:59.454Z,97559.72
2022-10-19T16:49:27.516Z,97557.69
2022-10-19T16:51:57.410Z,97558.16
2022-10-19T16:54:26.922Z,97568.50
2022-10-19T16:56:54.812Z,97566.44
2022-10-19T16:59:23.112Z,97571.44
2022-10-19T17:01:50.940Z,97573.91
2022-10-19T17:04:18.421Z,97584.00
2022-10-19T17:06:49.943Z,97578.59
2022-10-19T17:12:06.785Z,97588.25
2022-10-19T17:14:34.582Z,97585.84
2022-10-19T17:17:08.273Z,97599.16
2022-10-19T17:19:38.613Z,97597.75
2022-10-19T17:22:09.273Z,97584.75
2022-10-19T17:24:37.545Z,97597.97
2022-10-19T17:27:07.893Z,97601.13
2022-10-19T17:29:37.935Z,97597.78
2022-10-19T17:32:07.106Z,97607.50
2022-10-19T17:34:36.251Z,97610.03
2022-10-19T17:37:05.639Z,97620.41
2022-10-19T17:39:37.098Z,97614.22
2022-10-19T17:42:07.678Z,97634.22
2022-10-19T17:44:37.645Z,97618.38
2022-10-19T17:47:07.053Z,97622.91
2022-10-19T17:49:41.702Z,97625.63
2022-10-19T17:52:10.525Z,97622.06
2022-10-19T17:54:48.524Z,97621.25
2022-10-19T17:57:29.432Z,97610.88
2022-10-19T17:59:58.105Z,97621.78
2022-10-19T18:02:26.574Z,97625.34
2022-10-19T18:04:55.334Z,97621.03
2022-10-19T18:07:24.461Z,97628.06
2022-10-19T18:09:55.862Z,97619.50
2022-10-19T18:12:25.950Z,97619.81
2022-10-19T18:15:00.105Z,97628.81
2022-10-19T18:17:28.648Z,97622.75
2022-10-19T18:19:57.592Z,97646.75
2022-10-19T18:22:27.537Z,97636.59
2022-10-19T18:24:56.163Z,97634.69
2022-10-19T18:27:24.903Z,97629.06
2022-10-19T18:29:56.239Z,97622.75
2022-10-19T18:32:26.046Z,97625.06
2022-10-19T18:35:05.117Z,97629.88
2022-10-19T18:37:34.527Z,97634.78
2022-10-19T18:40:03.013Z,97635.06
2022-10-19T18:42:32.995Z,97639.44
2022-10-19T18:45:05.762Z,97634.63
2022-10-19T18:47:35.336Z,97638.72
2022-10-19T18:50:06.578Z,97634.31
2022-10-19T18:52:35.901Z,97632.31
2022-10-19T18:55:05.922Z,97631.88
2022-10-19T18:57:34.790Z,97636.47
2022-10-19T19:00:05.564Z,97636.97
2022-10-19T19:02:46.351Z,97647.63
2022-10-19T19:05:16.302Z,97649.50
2022-10-19T19:07:52.104Z,97639.34
2022-10-19T19:10:24.165Z,97643.53
2022-10-19T19:12:56.514Z,97640.72
2022-10-19T19:15:27.555Z,97646.97
2022-10-19T19:18:05.779Z,97643.75
2022-10-19T19:20:33.759Z,97643.94
2022-10-19T19:23:03.425Z,97647.47
2022-10-19T19:25:33.203Z,97641.41
2022-10-19T19:28:02.072Z,97650.75
2022-10-19T19:30:33.008Z,97641.75
2022-10-19T19:33:00.919Z,97649.41
2022-10-19T19:35:29.171Z,97650.34
2022-10-19T19:37:57.543Z,97654.44
2022-10-19T19:40:25.745Z,97653.41
2022-10-19T19:42:54.080Z,97658.00
2022-10-19T19:45:22.412Z,97662.56
2022-10-19T19:47:54.807Z,97661.75
2022-10-19T19:50:27.115Z,97661.31
2022-10-19T19:53:00.919Z,97671.97
2022-10-19T19:55:29.572Z,97676.50
2022-10-19T19:58:00.145Z,97673.06
2022-10-19T20:00:30.231Z,97678.00
2022-10-19T20:03:00.849Z,97672.78
2022-10-19T20:05:35.685Z,97684.25
2022-10-19T20:08:06.981Z,97672.34
2022-10-19T20:10:38.905Z,97686.63
2022-10-19T20:13:07.739Z,97687.69
2022-10-19T20:15:38.509Z,97700.94
2022-10-19T20:18:09.847Z,97701.03
2022-10-19T20:20:38.526Z,97701.03
2022-10-19T20:23:07.678Z,97703.84
2022-10-19T20:25:37.855Z,97712.59
2022-10-19T20:28:07.090Z,97703.84
2022-10-19T20:30:36.389Z,97703.19
2022-10-19T20:33:03.794Z,97703.38
2022-10-19T20:35:36.631Z,97712.44
2022-10-19T20:38:05.146Z,97710.03
2022-10-19T20:40:33.937Z,97714.28
2022-10-19T20:43:01.653Z,97721.19
2022-10-19T20:45:31.851Z,97707.31
2022-10-19T20:47:59.989Z,97717.19
2022-10-19T20:50:28.080Z,97725.22
2022-10-19T20:52:57.527Z,97718.78
2022-10-19T20:55:25.174Z,97728.66
2022-10-19T20:57:52.569Z,97727.28
2022-10-19T21:00:20.648Z,97732.97
2022-10-19T21:02:48.830Z,97737.03
2022-10-19T21:05:16.346Z,97734.22
2022-10-19T21:07:43.605Z,97742.66
2022-10-19T21:10:12.376Z,97733.50
2022-10-19T21:12:40.230Z,97735.75
2022-10-19T21:15:08.634Z,97731.63
2022-10-19T21:17:36.328Z,97738.78
2022-10-19T21:20:03.750Z,97741.75
2022-10-19T21:22:34.463Z,97736.88
2022-10-19T21:25:06.094Z,97738.66
2022-10-19T21:27:35.224Z,97737.97
2022-10-19T21:30:02.686Z,97744.06
2022-10-19T21:32:29.896Z,97744.06
2022-10-19T21:34:57.107Z,97750.09
2022-10-19T21:37:24.960Z,97746.50
2022-10-19T21:39:52.388Z,97748.22
2022-10-19T21:42:19.533Z,97748.75
2022-10-19T21:44:48.425Z,97767.38
2022-10-19T21:47:17.053Z,97764.00
2022-10-19T21:49:44.007Z,97764.16
2022-10-19T21:52:15.863Z,97771.25
2022-10-19T21:54:43.123Z,97765.38
2022-10-19T21:57:10.553Z,97762.16
2022-10-19T21:59:37.789Z,97771.84
2022-10-19T22:02:07.252Z,97778.91
2022-10-19T22:04:34.711Z,97778.13
2022-10-19T22:07:02.105Z,97785.97
2022-10-19T22:09:29.161Z,97777.31
2022-10-19T22:11:56.367Z,97791.09
2022-10-19T22:14:23.543Z,97795.72
2022-10-19T22:16:50.943Z,97790.50
2022-10-19T22:19:19.809Z,97788.91
2022-10-19T22:21:47.018Z,97796.72
2022-10-19T22:24:15.845Z,97801.09
2022-10-19T22:26:45.284Z,97794.19
2022-10-19T22:29:12.566Z,97795.88
2022-10-19T22:31:40.013Z,97803.72
2022-10-19T22:34:10.397Z,97803.72
2022-10-19T22:36:39.151Z,97801.94
2022-10-19T22:39:07.096Z,97805.16
2022-10-19T22:41:34.267Z,97811.78
2022-10-19T22:44:01.510Z,97807.25
2022-10-19T22:46:28.440Z,97818.19
2022-10-19T22:48:55.411Z,97812.78
2022-10-19T22:51:22.722Z,97817.09
2022-10-19T22:53:52.776Z,97819.88
2022-10-19T22:56:19.957Z,97823.66
2022-10-19T22:58:47.145Z,97821.88
2022-10-19T23:01:15.633Z,97816.41
2022-10-19T23:03:42.736Z,97817.72
2022-10-19T23:06:11.904Z,97817.97
2022-10-19T23:08:39.286Z,97820.84
2022-10-19T23:11:08.162Z,97826.13
2022-10-19T23:13:35.258Z,97834.09
2022-10-19T23:16:02.427Z,97828.41
2022-10-19T23:18:31.145Z,97839.72
2022-10-19T23:21:00.030Z,97826.53
2022-10-19T23:23:28.235Z,97833.13
2022-10-19T23:25:59.980Z,97841.75
2022-10-19T23:28:29.291Z,97837.41
2022-10-19T23:30:57.791Z,97835.38
2022-10-19T23:33:25.886Z,97827.91
2022-10-19T23:35:52.896Z,97829.44
2022-10-19T23:38:20.064Z,97834.47
2022-10-19T23:40:46.997Z,97830.09
2022-10-19T23:43:14.236Z,97829.94
2022-10-19T23:45:45.098Z,97833.38
2022-10-19T23:48:12.370Z,97823.97
2022-10-19T23:50:39.903Z,97825.72
2022-10-19T23:53:07.039Z,97834.03
2022-10-19T23:55:34.085Z,97821.31
2022-10-19T23:58:01.237Z,97824.50
